Ioannis G — 9HA3371 — position and weather

sailwx.info

Track history (hours):
 
Tides and Currents Weather Stations Pressure Air Temp Water Temp Dewpoint Dewpoint Depression Visibility Wind Speed Wind Dir Waves Ship Positions

Ioannis G

Last reported at 2018-Jul-23 11:25 UTC. Time now 2018-Jul-23 11:27 UTC.
Position N 01°17' E 103°60'.

Length 189 m; draft 12.8 m.

Type: Cargo ship. MMSI: 229486000.

Date/timePositionNaut miles runAvg speedWind from/ knotsBaromVisibWave heightAir tempDewpointWater temp
2018-Jul-23 11:25N 01°17' E 103°60'0 0.0
2018-Jul-23 10:15N 01°17' E 103°60'0 0.0
2018-Jul-23 09:55N 01°17' E 103°60'0 0.0
2018-Jul-23 09:24N 01°17' E 103°60'0 0.0
2018-Jul-23 08:55N 01°17' E 103°60'0 0.1
2018-Jul-23 08:28N 01°17' E 103°60'0 0.1
2018-Jul-23 07:55N 01°17' E 103°60'0 0.0
2018-Jul-23 07:25N 01°17' E 103°60'0 0.0
2018-Jul-23 06:49N 01°17' E 103°60'0 0.2
2018-Jul-23 06:30N 01°17' E 103°60'2 3.5
2018-Jul-23 05:59N 01°16' E 103°58'2 4.3
2018-Jul-23 05:30N 01°14' E 103°57'3 6.5
2018-Jul-23 05:00N 01°13' E 103°54'5 9.2
2018-Jul-23 04:30N 01°11' E 103°50'5 9.5
2018-Jul-23 04:00N 01°08' E 103°46'5 9.6
2018-Jul-23 03:30N 01°05' E 103°43'5 9.4
2018-Jul-23 03:00N 01°03' E 103°38'510.6
2018-Jul-23 02:30N 01°06' E 103°34'510.1
2018-Jul-23 02:00N 01°08' E 103°29'510.5
2018-Jul-23 01:30N 01°11' E 103°25'610.7
2018-Jul-23 00:55N 01°15' E 103°20'910.7
2018-Jul-23 00:03N 01°21' E 103°13'  
Track history (hours):
 
Tides and Currents Weather Stations Pressure Air Temp Water Temp Dewpoint Dewpoint Depression Visibility Wind Speed Wind Dir Waves Ship Positions

Ioannis G

Last reported at 2018-Jul-23 11:25 UTC. Time now 2018-Jul-23 11:27 UTC.
Position N 01°17' E 103°60'.

Length 189 m; draft 12.8 m.

Type: Cargo ship. MMSI: 229486000.

Date/timePositionNaut miles runAvg speedWind from/ knotsBaromVisibWave heightAir tempDewpointWater temp
2018-Jul-23 11:25N 01°17' E 103°60'0 0.0
2018-Jul-23 10:15N 01°17' E 103°60'0 0.0
2018-Jul-23 09:55N 01°17' E 103°60'0 0.0
2018-Jul-23 09:24N 01°17' E 103°60'0 0.0
2018-Jul-23 08:55N 01°17' E 103°60'0 0.1
2018-Jul-23 08:28N 01°17' E 103°60'0 0.1
2018-Jul-23 07:55N 01°17' E 103°60'0 0.0
2018-Jul-23 07:25N 01°17' E 103°60'0 0.0
2018-Jul-23 06:49N 01°17' E 103°60'0 0.2
2018-Jul-23 06:30N 01°17' E 103°60'2 3.5
2018-Jul-23 05:59N 01°16' E 103°58'2 4.3
2018-Jul-23 05:30N 01°14' E 103°57'3 6.5
2018-Jul-23 05:00N 01°13' E 103°54'5 9.2
2018-Jul-23 04:30N 01°11' E 103°50'5 9.5
2018-Jul-23 04:00N 01°08' E 103°46'5 9.6
2018-Jul-23 03:30N 01°05' E 103°43'5 9.4
2018-Jul-23 03:00N 01°03' E 103°38'510.6
2018-Jul-23 02:30N 01°06' E 103°34'510.1
2018-Jul-23 02:00N 01°08' E 103°29'510.5
2018-Jul-23 01:30N 01°11' E 103°25'610.7
2018-Jul-23 00:55N 01°15' E 103°20'910.7
2018-Jul-23 00:03N 01°21' E 103°13'  

Dump ship's entire track history